createdAt,value
2016-04-17T00:00:20.865Z,0
2016-04-17T00:01:20.851Z,0
2016-04-17T00:02:20.807Z,0
2016-04-17T00:03:20.779Z,0
2016-04-17T00:04:20.782Z,0
2016-04-17T00:05:20.738Z,0
2016-04-17T00:06:20.709Z,0
2016-04-17T00:07:20.696Z,0
2016-04-17T00:08:20.667Z,0
2016-04-17T00:09:20.640Z,0
2016-04-17T00:10:20.610Z,0
2016-04-17T00:11:20.566Z,0
2016-04-17T00:12:20.538Z,0
2016-04-17T00:13:20.509Z,0
2016-04-17T00:14:20.495Z,0
2016-04-17T00:15:20.467Z,0
2016-04-17T00:16:20.423Z,0
2016-04-17T00:17:20.411Z,0
2016-04-17T00:18:20.397Z,0
2016-04-17T00:19:20.353Z,0
2016-04-17T00:20:20.324Z,0
2016-04-17T00:21:20.297Z,0
2016-04-17T00:22:20.267Z,0
2016-04-17T00:23:20.239Z,0
2016-04-17T00:24:20.289Z,0
2016-04-17T00:25:20.197Z,0
2016-04-17T00:26:20.153Z,0
2016-04-17T00:27:20.140Z,0
2016-04-17T00:28:20.096Z,0
2016-04-17T00:29:20.082Z,0
2016-04-17T00:30:20.054Z,0
2016-04-17T00:31:20.026Z,0
2016-04-17T00:32:19.997Z,0
2016-04-17T00:33:19.968Z,0
2016-04-17T00:34:19.956Z,0
2016-04-17T00:35:19.927Z,0
2016-04-17T00:36:19.899Z,0
2016-04-17T00:37:19.855Z,0
2016-04-17T00:38:19.826Z,0
2016-04-17T00:39:19.813Z,0
2016-04-17T00:40:19.784Z,0
2016-04-17T00:41:19.756Z,0
2016-04-17T00:42:19.728Z,0
2016-04-17T00:43:19.699Z,0
2016-04-17T00:44:19.686Z,0
2016-04-17T00:45:19.486Z,0
2016-04-17T00:46:19.613Z,0
2016-04-17T00:47:19.584Z,0
2016-04-17T00:48:19.556Z,0
2016-04-17T00:49:19.528Z,0
2016-04-17T00:50:19.515Z,0
2016-04-17T00:51:19.470Z,0
2016-04-17T00:52:19.458Z,0
2016-04-17T00:53:19.429Z,0
2016-04-17T00:54:19.417Z,0
2016-04-17T00:55:19.372Z,0
2016-04-17T00:56:19.344Z,0
2016-04-17T00:57:19.314Z,0
2016-04-17T00:58:19.302Z,0
2016-04-17T00:59:19.257Z,0
2016-04-17T01:00:19.230Z,0
2016-04-17T01:01:19.200Z,0
2016-04-17T01:02:19.172Z,0
2016-04-17T01:03:19.143Z,0
2016-04-17T01:04:19.130Z,0
2016-04-17T01:05:19.086Z,0
2016-04-17T01:06:19.058Z,0
2016-04-17T01:07:19.029Z,0
2016-04-17T01:08:19.016Z,0
2016-04-17T01:09:18.987Z,0
2016-04-17T01:10:18.974Z,0
2016-04-17T01:11:18.946Z,0
2016-04-17T01:12:18.996Z,0
2016-04-17T01:13:18.890Z,0
2016-04-17T01:14:18.845Z,0
2016-04-17T01:15:18.816Z,0
2016-04-17T01:16:18.787Z,0
2016-04-17T01:17:18.775Z,0
2016-04-17T01:18:18.731Z,0
2016-04-17T01:19:18.703Z,0
2016-04-17T01:20:18.673Z,0
2016-04-17T01:21:18.661Z,0
2016-04-17T01:22:18.616Z,0
2016-04-17T01:23:18.603Z,0
2016-04-17T01:24:18.575Z,0
2016-04-17T01:25:18.531Z,0
2016-04-17T01:26:18.533Z,0
2016-04-17T01:27:18.505Z,0
2016-04-17T01:28:18.460Z,0
2016-04-17T01:29:18.447Z,0
2016-04-17T01:30:18.403Z,0
2016-04-17T01:31:18.375Z,0
2016-04-17T01:32:18.346Z,0
2016-04-17T01:33:18.318Z,0
2016-04-17T01:34:18.288Z,0
2016-04-17T01:35:18.277Z,0
2016-04-17T01:36:18.232Z,0
2016-04-17T01:37:18.219Z,0
2016-04-17T01:38:18.174Z,0
2016-04-17T01:39:18.162Z,0
2016-04-17T01:40:18.117Z,0
2016-04-17T01:41:18.105Z,0
2016-04-17T01:42:18.076Z,0
2016-04-17T01:43:18.048Z,0
2016-04-17T01:44:18.019Z,0
2016-04-17T01:45:17.990Z,0
2016-04-17T01:46:17.962Z,0
2016-04-17T01:47:17.934Z,0
2016-04-17T01:48:17.905Z,0
2016-04-17T01:49:17.876Z,0
2016-04-17T01:50:17.847Z,0
2016-04-17T01:51:17.819Z,0
2016-04-17T01:52:17.806Z,0
2016-04-17T01:53:17.778Z,0
2016-04-17T01:54:17.750Z,0
2016-04-17T01:55:17.720Z,0
2016-04-17T01:56:17.692Z,0
2016-04-17T01:57:17.663Z,0
2016-04-17T01:58:17.635Z,0
2016-04-17T01:59:17.606Z,0
2016-04-17T02:00:17.578Z,0
2016-04-17T02:01:17.565Z,0
2016-04-17T02:02:17.521Z,0
2016-04-17T02:03:17.491Z,0
2016-04-17T02:04:17.480Z,0
2016-04-17T02:05:17.451Z,0
2016-04-17T02:06:17.407Z,0
2016-04-17T02:07:17.393Z,0
2016-04-17T02:08:17.365Z,0
2016-04-17T02:09:17.337Z,0
2016-04-17T02:10:17.324Z,0
2016-04-17T02:11:17.295Z,0
2016-04-17T02:12:17.251Z,0
2016-04-17T02:13:17.222Z,0
2016-04-17T02:14:17.240Z,0
2016-04-17T02:15:17.164Z,0
2016-04-17T02:16:17.137Z,0
2016-04-17T02:17:17.123Z,0
2016-04-17T02:18:17.126Z,0
2016-04-17T02:19:17.097Z,0
2016-04-17T02:20:17.069Z,0
2016-04-17T02:21:16.697Z,0
2016-04-17T02:22:16.986Z,0
2016-04-17T02:23:16.941Z,0
2016-04-17T02:24:16.944Z,0
2016-04-17T02:25:16.900Z,0
2016-04-17T02:26:16.871Z,0
2016-04-17T02:27:16.858Z,0
2016-04-17T02:28:16.830Z,0
2016-04-17T02:29:16.785Z,0
2016-04-17T02:30:16.772Z,0
2016-04-17T02:31:16.744Z,0
2016-04-17T02:32:16.716Z,0
2016-04-17T02:33:16.672Z,0
2016-04-17T02:34:16.658Z,0
2016-04-17T02:35:16.630Z,0
2016-04-17T02:36:16.601Z,0
2016-04-17T02:37:16.588Z,0
2016-04-17T02:38:16.560Z,0
2016-04-17T02:39:16.516Z,0
2016-04-17T02:40:16.503Z,0
2016-04-17T02:41:16.474Z,0
2016-04-17T02:42:16.429Z,0
2016-04-17T02:43:16.417Z,0
2016-04-17T02:44:16.389Z,0
2016-04-17T02:45:16.376Z,0
2016-04-17T02:46:16.331Z,0
2016-04-17T02:47:16.303Z,0
2016-04-17T02:48:16.258Z,0
2016-04-17T02:49:16.246Z,0
2016-04-17T02:50:16.233Z,0
2016-04-17T02:51:16.204Z,0
2016-04-17T02:52:16.160Z,0
2016-04-17T02:53:16.131Z,0
2016-04-17T02:54:16.118Z,0
2016-04-17T02:55:16.169Z,0
2016-04-17T02:56:16.061Z,0
2016-04-17T02:57:16.033Z,0
2016-04-17T02:58:16.019Z,0
2016-04-17T02:59:15.975Z,0
2016-04-17T03:00:15.791Z,0
2016-04-17T03:01:15.918Z,0
2016-04-17T03:02:15.905Z,0
2016-04-17T03:03:15.877Z,0
2016-04-17T03:04:15.849Z,0
2016-04-17T03:05:15.820Z,0
2016-04-17T03:06:15.791Z,0
2016-04-17T03:07:15.763Z,0
2016-04-17T03:08:15.734Z,0
2016-04-17T03:09:15.721Z,0
2016-04-17T03:10:15.724Z,0
2016-04-17T03:11:15.664Z,0
2016-04-17T03:12:15.635Z,0
2016-04-17T03:13:15.607Z,0
2016-04-17T03:14:15.579Z,0
2016-04-17T03:15:15.565Z,0
2016-04-17T03:16:15.521Z,0
2016-04-17T03:17:15.492Z,0
2016-04-17T03:18:15.480Z,0
2016-04-17T03:19:15.467Z,0
2016-04-17T03:20:15.422Z,0
2016-04-17T03:21:15.394Z,0
2016-04-17T03:22:15.366Z,0
2016-04-17T03:23:15.337Z,0
2016-04-17T03:24:15.309Z,0
2016-04-17T03:25:15.280Z,0
2016-04-17T03:26:15.283Z,0
2016-04-17T03:27:15.222Z,0
2016-04-17T03:28:15.210Z,0
2016-04-17T03:29:15.165Z,0
2016-04-17T03:30:15.138Z,0
2016-04-17T03:31:15.124Z,0
2016-04-17T03:32:15.127Z,0
2016-04-17T03:33:15.082Z,0
2016-04-17T03:34:15.038Z,0
2016-04-17T03:35:14.993Z,0
2016-04-17T03:36:14.982Z,0
2016-04-17T03:37:14.952Z,0
2016-04-17T03:38:14.955Z,0
2016-04-17T03:39:14.895Z,0
2016-04-17T03:40:14.929Z,0
2016-04-17T03:41:14.854Z,0
2016-04-17T03:42:14.826Z,0
2016-04-17T03:43:14.797Z,0
2016-04-17T03:44:14.768Z,0
2016-04-17T03:45:14.740Z,0
2016-04-17T03:46:14.711Z,0
2016-04-17T03:47:14.683Z,0
2016-04-17T03:48:14.654Z,0
2016-04-17T03:49:14.642Z,0
2016-04-17T03:50:14.613Z,0
2016-04-17T03:51:14.584Z,0
2016-04-17T03:52:14.555Z,0
2016-04-17T03:53:14.528Z,0
2016-04-17T03:54:14.514Z,0
2016-04-17T03:55:15.001Z,0
2016-04-17T03:56:14.441Z,0
2016-04-17T03:57:14.272Z,0
2016-04-17T03:58:14.400Z,0
2016-04-17T03:59:14.355Z,4
2016-04-17T04:00:14.186Z,4
2016-04-17T04:01:14.158Z,4
2016-04-17T04:02:14.286Z,0
2016-04-17T04:03:14.257Z,0
2016-04-17T04:04:14.244Z,4
2016-04-17T04:05:14.216Z,4
2016-04-17T04:06:14.172Z,8
2016-04-17T04:07:14.143Z,4
2016-04-17T04:08:14.115Z,8
2016-04-17T04:09:14.085Z,8
2016-04-17T04:10:14.666Z,12
2016-04-17T04:11:14.075Z,12
2016-04-17T04:12:14.016Z,12
2016-04-17T04:13:13.987Z,16
2016-04-17T04:14:13.959Z,16
2016-04-17T04:15:13.929Z,20
2016-04-17T04:16:13.902Z,24
2016-04-17T04:17:13.873Z,24
2016-04-17T04:18:13.860Z,32
2016-04-17T04:19:13.831Z,32
2016-04-17T04:20:13.803Z,36
2016-04-17T04:21:13.758Z,40
2016-04-17T04:22:13.777Z,44
2016-04-17T04:23:13.717Z,52
2016-04-17T04:24:13.689Z,60
2016-04-17T04:25:13.785Z,68
2016-04-17T04:26:13.647Z,76
2016-04-17T04:27:13.602Z,92
2016-04-17T04:28:13.589Z,108
2016-04-17T04:29:13.530Z,128
2016-04-17T04:30:13.517Z,148
2016-04-17T04:31:13.489Z,164
2016-04-17T04:32:13.475Z,180
2016-04-17T04:33:13.447Z,196
2016-04-17T04:34:13.419Z,212
2016-04-17T04:35:13.391Z,240
2016-04-17T04:36:13.205Z,264
2016-04-17T04:37:13.333Z,292
2016-04-17T04:38:13.304Z,324
2016-04-17T04:39:13.276Z,352
2016-04-17T04:40:13.341Z,388
2016-04-17T04:41:13.234Z,416
2016-04-17T04:42:13.206Z,440
2016-04-17T04:43:13.177Z,456
2016-04-17T04:44:13.148Z,468
2016-04-17T04:45:13.120Z,476
2016-04-17T04:46:13.106Z,488
2016-04-17T04:47:13.063Z,508
2016-04-17T04:48:13.050Z,540
2016-04-17T04:49:13.021Z,568
2016-04-17T04:50:12.992Z,588
2016-04-17T04:51:12.964Z,596
2016-04-17T04:52:12.779Z,584
2016-04-17T04:53:12.907Z,568
2016-04-17T04:54:12.878Z,552
2016-04-17T04:55:12.850Z,544
2016-04-17T04:56:12.821Z,548
2016-04-17T04:57:12.808Z,564
2016-04-17T04:58:12.780Z,576
2016-04-17T04:59:12.751Z,584
2016-04-17T05:00:12.708Z,584
2016-04-17T05:01:12.694Z,592
2016-04-17T05:02:12.666Z,628
2016-04-17T05:03:12.637Z,688
2016-04-17T05:04:12.608Z,748
2016-04-17T05:05:12.580Z,788
2016-04-17T05:06:12.552Z,828
2016-04-17T05:07:12.523Z,876
2016-04-17T05:08:12.494Z,952
2016-04-17T05:09:12.465Z,1028
2016-04-17T05:10:12.438Z,1072
2016-04-17T05:11:12.409Z,1068
2016-04-17T05:12:12.396Z,1044
2016-04-17T05:13:12.367Z,1024
2016-04-17T05:14:12.338Z,1024
2016-04-17T05:15:12.294Z,1044
2016-04-17T05:16:12.282Z,1096
2016-04-17T05:17:12.253Z,1172
2016-04-17T05:18:12.224Z,1216
2016-04-17T05:19:12.195Z,1216
2016-04-17T05:20:12.167Z,1196
2016-04-17T05:21:12.153Z,1204
2016-04-17T05:22:12.126Z,1240
2016-04-17T05:23:12.097Z,1300
2016-04-17T05:24:12.069Z,1388
2016-04-17T05:25:12.039Z,1488
2016-04-17T05:26:12.011Z,1604
2016-04-17T05:27:11.983Z,1700
2016-04-17T05:28:11.955Z,1772
2016-04-17T05:29:11.925Z,1836
2016-04-17T05:30:11.897Z,1876
2016-04-17T05:31:11.869Z,1900
2016-04-17T05:32:11.855Z,1940
2016-04-17T05:33:11.827Z,1980
2016-04-17T05:34:11.627Z,2028
2016-04-17T05:35:11.770Z,2080
2016-04-17T05:36:11.741Z,2152
2016-04-17T05:37:11.713Z,2244
2016-04-17T05:38:11.684Z,2352
2016-04-17T05:39:11.655Z,2444
2016-04-17T05:40:11.627Z,2516
2016-04-17T05:41:11.615Z,2620
2016-04-17T05:42:11.570Z,2752
2016-04-17T05:43:11.557Z,2804
2016-04-17T05:44:11.529Z,2656
2016-04-17T05:45:11.501Z,2308
2016-04-17T05:46:11.471Z,1932
2016-04-17T05:47:11.443Z,1724
2016-04-17T05:48:11.415Z,1640
2016-04-17T05:49:11.401Z,1604
2016-04-17T05:50:11.373Z,1588
2016-04-17T05:51:11.329Z,1600
2016-04-17T05:52:11.316Z,1628
2016-04-17T05:53:11.287Z,1704
2016-04-17T05:54:11.259Z,1756
2016-04-17T05:55:11.230Z,1772
2016-04-17T05:56:11.201Z,1796
2016-04-17T05:57:11.172Z,1848
2016-04-17T05:58:11.161Z,1876
2016-04-17T05:59:11.116Z,1944
2016-04-17T06:00:11.087Z,2060
2016-04-17T06:01:11.058Z,2172
2016-04-17T06:02:11.047Z,2268
2016-04-17T06:03:11.039Z,2356
2016-04-17T06:04:11.081Z,2376
2016-04-17T06:05:11.077Z,2464
2016-04-17T06:06:11.089Z,2576
2016-04-17T06:07:11.099Z,2696
2016-04-17T06:08:11.087Z,3044
2016-04-17T06:09:11.073Z,3484
2016-04-17T06:10:11.059Z,3948
2016-04-17T06:11:11.060Z,4452
2016-04-17T06:12:11.030Z,4724
2016-04-17T06:13:11.022Z,5160
2016-04-17T06:14:11.000Z,5484
2016-04-17T06:15:10.961Z,5844
2016-04-17T06:16:10.954Z,6356
2016-04-17T06:17:10.946Z,6624
2016-04-17T06:18:10.903Z,6628
2016-04-17T06:19:10.877Z,6752
2016-04-17T06:20:10.850Z,6692
2016-04-17T06:21:10.840Z,5964
2016-04-17T06:22:10.813Z,5472
2016-04-17T06:23:10.769Z,5300
2016-04-17T06:24:10.773Z,4668
2016-04-17T06:25:10.729Z,4608
2016-04-17T06:26:10.702Z,4284
2016-04-17T06:27:10.690Z,5124
2016-04-17T06:28:10.661Z,5636
2016-04-17T06:29:10.633Z,6232
2016-04-17T06:30:10.603Z,6684
2016-04-17T06:31:10.575Z,6740
2016-04-17T06:32:10.563Z,6700
2016-04-17T06:33:10.533Z,6492
2016-04-17T06:34:10.505Z,6160
2016-04-17T06:35:10.477Z,5880
2016-04-17T06:36:10.432Z,5760
2016-04-17T06:37:10.482Z,5652
2016-04-17T06:38:10.407Z,5276
2016-04-17T06:39:10.362Z,4960
2016-04-17T06:40:10.335Z,4728
2016-04-17T06:41:10.321Z,4760
2016-04-17T06:42:10.292Z,5160
2016-04-17T06:43:10.264Z,5744
2016-04-17T06:44:10.235Z,6156
2016-04-17T06:45:10.207Z,6204
2016-04-17T06:46:10.179Z,6244
2016-04-17T06:47:10.149Z,6324
2016-04-17T06:48:10.137Z,6524
2016-04-17T06:49:10.109Z,6720
2016-04-17T06:50:10.111Z,6964
2016-04-17T06:51:10.051Z,6440
2016-04-17T06:52:10.023Z,6296
2016-04-17T06:53:10.009Z,6160
2016-04-17T06:54:09.965Z,6308
2016-04-17T06:55:09.952Z,6892
2016-04-17T06:56:09.923Z,7568
2016-04-17T06:57:09.896Z,8248
2016-04-17T06:58:09.866Z,8900
2016-04-17T06:59:09.854Z,9596
2016-04-17T07:00:09.841Z,10368
2016-04-17T07:01:09.812Z,11356
2016-04-17T07:02:09.769Z,12172
2016-04-17T07:03:09.755Z,12732
2016-04-17T07:04:09.711Z,12972
2016-04-17T07:05:09.698Z,13196
2016-04-17T07:06:09.669Z,12596
2016-04-17T07:07:09.657Z,10832
2016-04-17T07:08:09.613Z,9424
2016-04-17T07:09:09.583Z,8944
2016-04-17T07:10:09.571Z,8576
2016-04-17T07:11:09.854Z,8436
2016-04-17T07:12:09.530Z,8548
2016-04-17T07:13:09.485Z,8892
2016-04-17T07:14:09.471Z,9312
2016-04-17T07:15:09.443Z,9644
2016-04-17T07:16:09.415Z,9844
2016-04-17T07:17:09.229Z,9904
2016-04-17T07:18:09.358Z,9868
2016-04-17T07:19:09.345Z,9628
2016-04-17T07:20:09.317Z,8880
2016-04-17T07:21:09.131Z,8332
2016-04-17T07:22:09.260Z,7752
2016-04-17T07:23:09.231Z,7540
2016-04-17T07:24:09.203Z,7768
2016-04-17T07:25:09.189Z,8236
2016-04-17T07:26:09.161Z,8880
2016-04-17T07:27:09.132Z,9468
2016-04-17T07:28:09.120Z,10060
2016-04-17T07:29:09.091Z,10576
2016-04-17T07:30:09.062Z,11004
2016-04-17T07:31:09.033Z,11484
2016-04-17T07:32:09.020Z,12340
2016-04-17T07:33:09.008Z,12060
2016-04-17T07:34:08.964Z,11896
2016-04-17T07:35:08.935Z,11804
2016-04-17T07:36:08.906Z,11716
2016-04-17T07:37:08.894Z,11800
2016-04-17T07:38:08.850Z,11944
2016-04-17T07:39:08.852Z,12004
2016-04-17T07:40:08.839Z,12460
2016-04-17T07:41:08.701Z,12956
2016-04-17T07:42:08.782Z,13660
2016-04-17T07:43:08.754Z,14352
2016-04-17T07:44:08.725Z,14640
2016-04-17T07:45:08.696Z,14888
2016-04-17T07:46:08.668Z,15372
2016-04-17T07:47:08.639Z,26080
2016-04-17T07:48:08.610Z,45792
2016-04-17T07:49:08.582Z,17272
2016-04-17T07:50:08.568Z,14136
2016-04-17T07:51:08.556Z,14368
2016-04-17T07:52:08.559Z,14568
2016-04-17T07:53:08.499Z,15456
2016-04-17T07:54:08.502Z,16616
2016-04-17T07:55:08.457Z,17084
2016-04-17T07:56:08.335Z,17760
2016-04-17T07:57:08.416Z,17088
2016-04-17T07:58:08.387Z,16400
2016-04-17T07:59:08.358Z,15596
2016-04-17T08:00:08.362Z,14452
2016-04-17T08:01:08.333Z,14392
2016-04-17T08:02:08.289Z,14896
2016-04-17T08:03:08.275Z,15520
2016-04-17T08:04:08.278Z,17284
2016-04-17T08:05:08.234Z,22144
2016-04-17T08:06:08.221Z,32672
2016-04-17T08:07:08.224Z,61792
2016-04-17T08:08:08.149Z,57088
2016-04-17T08:09:08.136Z,76032
2016-04-17T08:10:08.123Z,45728
2016-04-17T08:11:08.125Z,72064
2016-04-17T08:12:08.096Z,54688
2016-04-17T08:13:08.068Z,57312
2016-04-17T08:14:08.024Z,51648
2016-04-17T08:15:08.011Z,50016
2016-04-17T08:16:08.014Z,61408
2016-04-17T08:17:07.970Z,59968
2016-04-17T08:18:07.940Z,57504
2016-04-17T08:19:07.928Z,26240
2016-04-17T08:20:07.915Z,20064
2016-04-17T08:21:07.901Z,34624
2016-04-17T08:22:07.905Z,36768
2016-04-17T08:23:07.892Z,23136
2016-04-17T08:24:07.832Z,8380
2016-04-17T08:25:07.834Z,86048
2016-04-17T08:26:07.712Z,28928
2016-04-17T08:27:07.793Z,13232
2016-04-17T08:28:07.781Z,20320
2016-04-17T08:29:07.753Z,19936
2016-04-17T08:30:07.739Z,25824
2016-04-17T08:31:07.726Z,14204
2016-04-17T08:32:07.713Z,35232
2016-04-17T08:33:07.684Z,61312
2016-04-17T08:34:07.656Z,42080
2016-04-17T08:35:07.643Z,14900
2016-04-17T08:36:07.630Z,12492
2016-04-17T08:37:07.617Z,17100
2016-04-17T08:38:07.604Z,19712
2016-04-17T08:39:07.575Z,16536
2016-04-17T08:40:07.407Z,15348
2016-04-17T08:41:07.581Z,16344
2016-04-17T08:42:07.553Z,12700
2016-04-17T08:43:07.494Z,10412
2016-04-17T08:44:07.480Z,9476
2016-04-17T08:45:07.466Z,9252
2016-04-17T08:46:07.454Z,10788
2016-04-17T08:47:07.410Z,15592
2016-04-17T08:48:07.397Z,18752
2016-04-17T08:49:07.384Z,15600
2016-04-17T08:50:07.371Z,14620
2016-04-17T08:51:07.343Z,16448
2016-04-17T08:52:07.330Z,16924
2016-04-17T08:53:07.301Z,16028
2016-04-17T08:54:07.303Z,14240
2016-04-17T08:55:07.259Z,14924
2016-04-17T08:56:07.325Z,16616
2016-04-17T08:57:07.218Z,14284
2016-04-17T08:58:07.206Z,11000
2016-04-17T08:59:07.192Z,10520
2016-04-17T09:00:07.148Z,11456
2016-04-17T09:01:07.135Z,12140
2016-04-17T09:02:07.122Z,12576
2016-04-17T09:03:07.094Z,11948
2016-04-17T09:04:07.080Z,14888
2016-04-17T09:05:07.052Z,17820
2016-04-17T09:06:07.055Z,18816
2016-04-17T09:07:07.026Z,18016
2016-04-17T09:08:07.013Z,14708
2016-04-17T09:09:06.985Z,12684
2016-04-17T09:10:06.940Z,13292
2016-04-17T09:11:06.912Z,14144
2016-04-17T09:12:06.899Z,15604
2016-04-17T09:13:06.886Z,17336
2016-04-17T09:14:06.857Z,18220
2016-04-17T09:15:06.830Z,16456
2016-04-17T09:16:06.816Z,13184
2016-04-17T09:17:06.803Z,10108
2016-04-17T09:18:06.774Z,8448
2016-04-17T09:19:06.762Z,7428
2016-04-17T09:20:06.733Z,7112
2016-04-17T09:21:06.704Z,7656
2016-04-17T09:22:06.691Z,9000
2016-04-17T09:23:06.662Z,10468
2016-04-17T09:24:06.635Z,11840
2016-04-17T09:25:06.621Z,11808
2016-04-17T09:26:06.781Z,10724
2016-04-17T09:27:06.580Z,9460
2016-04-17T09:28:06.568Z,8872
2016-04-17T09:29:06.539Z,9616
2016-04-17T09:30:06.510Z,11024
2016-04-17T09:31:06.497Z,12284
2016-04-17T09:32:06.453Z,12760
2016-04-17T09:33:06.440Z,13016
2016-04-17T09:34:06.443Z,12484
2016-04-17T09:35:06.398Z,11612
2016-04-17T09:36:06.386Z,11184
2016-04-17T09:37:06.357Z,10884
2016-04-17T09:38:06.329Z,11176
2016-04-17T09:39:06.316Z,12200
2016-04-17T09:40:06.287Z,12240
2016-04-17T09:41:06.134Z,12236
2016-04-17T09:42:06.245Z,11704
2016-04-17T09:43:06.216Z,10964
2016-04-17T09:44:06.204Z,9768
2016-04-17T09:45:06.175Z,9772
2016-04-17T09:46:06.163Z,10072
2016-04-17T09:47:06.118Z,9088
2016-04-17T09:48:06.106Z,7972
2016-04-17T09:49:06.093Z,6480
2016-04-17T09:50:06.064Z,6012
2016-04-17T09:51:06.052Z,5856
2016-04-17T09:52:06.007Z,6092
2016-04-17T09:53:05.994Z,7248
2016-04-17T09:54:05.966Z,7672
2016-04-17T09:55:05.952Z,7400
2016-04-17T09:56:05.940Z,7636
2016-04-17T09:57:05.908Z,8088
2016-04-17T09:58:05.865Z,9612
2016-04-17T09:59:05.851Z,12264
2016-04-17T10:00:05.822Z,12880
2016-04-17T10:01:05.981Z,14040
2016-04-17T10:02:05.171Z,15516
2016-04-17T10:03:05.753Z,15564
2016-04-17T10:04:07.712Z,16392
2016-04-17T10:05:11.214Z,15976
2016-04-17T10:06:10.639Z,14540
2016-04-17T10:07:10.673Z,12648
2016-04-17T10:08:08.237Z,10880
2016-04-17T10:09:11.083Z,9220
2016-04-17T10:10:10.790Z,8132
2016-04-17T10:11:10.823Z,7788
2016-04-17T10:12:11.014Z,7812
2016-04-17T10:13:10.719Z,8620
2016-04-17T10:14:10.753Z,8568
2016-04-17T10:15:10.474Z,7540
2016-04-17T10:16:10.978Z,7284
2016-04-17T10:17:10.589Z,7772
2016-04-17T10:18:11.202Z,8376
2016-04-17T10:19:10.205Z,9788
2016-04-17T10:20:10.847Z,11444
2016-04-17T10:21:10.647Z,12652
2016-04-17T10:22:09.274Z,13420
2016-04-17T10:23:11.168Z,13404
2016-04-17T10:24:10.390Z,13116
2016-04-17T10:25:10.298Z,12684
2016-04-17T10:26:08.707Z,11592
2016-04-17T10:27:06.723Z,11672
2016-04-17T10:28:06.445Z,11824
2016-04-17T10:29:05.166Z,12104
2016-04-17T10:30:05.154Z,11556
2016-04-17T10:31:05.124Z,9848
2016-04-17T10:32:05.112Z,9024
2016-04-17T10:33:05.083Z,9064
2016-04-17T10:34:05.054Z,9336
2016-04-17T10:35:05.042Z,9460
2016-04-17T10:36:05.012Z,9800
2016-04-17T10:37:04.984Z,9628
2016-04-17T10:38:04.987Z,9132
2016-04-17T10:39:04.943Z,8880
2016-04-17T10:40:04.931Z,8764
2016-04-17T10:41:04.901Z,8620
2016-04-17T10:42:04.873Z,8436
2016-04-17T10:43:04.875Z,8108
2016-04-17T10:44:04.831Z,7740
2016-04-17T10:45:04.803Z,6848
2016-04-17T10:46:04.789Z,6164
2016-04-17T10:47:04.762Z,5948
2016-04-17T10:48:04.748Z,5612
2016-04-17T10:49:04.705Z,5312
2016-04-17T10:50:04.692Z,5016
2016-04-17T10:51:04.678Z,4872
2016-04-17T10:52:04.650Z,4836
2016-04-17T10:53:04.622Z,4928
2016-04-17T10:54:04.593Z,5200
2016-04-17T10:55:04.580Z,6040
2016-04-17T10:56:04.551Z,7232
2016-04-17T10:57:04.554Z,8780
2016-04-17T10:58:04.509Z,10240
2016-04-17T10:59:04.481Z,11280
2016-04-17T11:00:04.453Z,10420
2016-04-17T11:01:04.440Z,8908
2016-04-17T11:02:04.412Z,7936
2016-04-17T11:03:04.601Z,7960
2016-04-17T11:04:04.385Z,8236
2016-04-17T11:05:04.357Z,8308
2016-04-17T11:06:04.328Z,8220
2016-04-17T11:07:04.300Z,7876
2016-04-17T11:08:04.286Z,7432
2016-04-17T11:09:04.258Z,7236
2016-04-17T11:10:04.245Z,7396
2016-04-17T11:11:04.216Z,8268
2016-04-17T11:12:04.203Z,8964
2016-04-17T11:13:04.175Z,9316
2016-04-17T11:14:04.584Z,9796
2016-04-17T11:15:04.118Z,9776
2016-04-17T11:16:04.105Z,9712
2016-04-17T11:17:04.077Z,8936
2016-04-17T11:18:04.048Z,7516
2016-04-17T11:19:04.035Z,6368
2016-04-17T11:20:04.006Z,5652
2016-04-17T11:21:03.994Z,5008
2016-04-17T11:22:03.966Z,5600
2016-04-17T11:23:03.952Z,6872
2016-04-17T11:24:03.907Z,8292
2016-04-17T11:25:03.910Z,8644
2016-04-17T11:26:03.882Z,8860
2016-04-17T11:27:03.854Z,8840
2016-04-17T11:28:03.840Z,8972
2016-04-17T11:29:03.812Z,8988
2016-04-17T11:30:03.783Z,9000
2016-04-17T11:31:03.785Z,8908
2016-04-17T11:32:03.742Z,8696
2016-04-17T11:33:03.713Z,8368
2016-04-17T11:34:03.715Z,8076
2016-04-17T11:35:03.672Z,7288
2016-04-17T11:36:03.643Z,6492
2016-04-17T11:37:03.630Z,5976
2016-04-17T11:38:03.601Z,5616
2016-04-17T11:39:03.589Z,5432
2016-04-17T11:40:03.576Z,5376
2016-04-17T11:41:03.547Z,5664
2016-04-17T11:42:03.519Z,6220
2016-04-17T11:43:03.522Z,6420
2016-04-17T11:44:03.478Z,7284
2016-04-17T11:45:03.465Z,8320
2016-04-17T11:46:03.436Z,9112
2016-04-17T11:47:03.408Z,9584
2016-04-17T11:48:03.379Z,10600
2016-04-17T11:49:03.366Z,11416
2016-04-17T11:50:03.337Z,12772
2016-04-17T11:51:03.308Z,14152
2016-04-17T11:52:03.296Z,14724
2016-04-17T11:53:03.266Z,15240
2016-04-17T11:54:03.238Z,15260
2016-04-17T11:55:03.241Z,13936
2016-04-17T11:56:03.197Z,11664
2016-04-17T11:57:03.199Z,9892
2016-04-17T11:58:03.155Z,8496
2016-04-17T11:59:03.127Z,7680
2016-04-17T12:00:03.114Z,7320
2016-04-17T12:01:02.946Z,7060
2016-04-17T12:02:03.073Z,7772
2016-04-17T12:03:03.044Z,8544
2016-04-17T12:04:03.016Z,9156
2016-04-17T12:05:03.002Z,9400
2016-04-17T12:06:02.990Z,9300
2016-04-17T12:07:02.962Z,9472
2016-04-17T12:08:02.948Z,10160
2016-04-17T12:09:02.935Z,11048
2016-04-17T12:10:02.890Z,11816
2016-04-17T12:11:02.878Z,12056
2016-04-17T12:12:02.850Z,11876
2016-04-17T12:13:02.837Z,11696
2016-04-17T12:14:02.839Z,11320
2016-04-17T12:15:02.795Z,10988
2016-04-17T12:16:02.766Z,10684
2016-04-17T12:17:02.753Z,10500
2016-04-17T12:18:02.741Z,10312
2016-04-17T12:19:02.711Z,10488
2016-04-17T12:20:02.667Z,11196
2016-04-17T12:21:02.670Z,11804
2016-04-17T12:22:02.658Z,12196
2016-04-17T12:23:02.629Z,12244
2016-04-17T12:24:02.600Z,11620
2016-04-17T12:25:02.571Z,10004
2016-04-17T12:26:02.544Z,8536
2016-04-17T12:27:02.531Z,7644
2016-04-17T12:28:02.518Z,6864
2016-04-17T12:29:02.489Z,6208
2016-04-17T12:30:02.460Z,5560
2016-04-17T12:31:02.463Z,4960
2016-04-17T12:32:02.435Z,4516
2016-04-17T12:33:02.422Z,4192
2016-04-17T12:34:02.393Z,3900
2016-04-17T12:35:02.490Z,3732
2016-04-17T12:36:02.336Z,3412
2016-04-17T12:37:02.323Z,3316
2016-04-17T12:38:02.295Z,3320
2016-04-17T12:39:02.266Z,3400
2016-04-17T12:40:02.237Z,3448
2016-04-17T12:41:02.224Z,3772
2016-04-17T12:42:02.212Z,3668
2016-04-17T12:43:02.198Z,3684
2016-04-17T12:44:02.153Z,3896
2016-04-17T12:45:02.125Z,4180
2016-04-17T12:46:02.112Z,4336
2016-04-17T12:47:02.100Z,4512
2016-04-17T12:48:02.072Z,4544
2016-04-17T12:49:02.058Z,4368
2016-04-17T12:50:02.014Z,4444
2016-04-17T12:51:02.016Z,4400
2016-04-17T12:52:05.097Z,4464
2016-04-17T12:53:01.960Z,5032
2016-04-17T12:54:03.930Z,5328
2016-04-17T12:55:01.918Z,5740
2016-04-17T12:56:01.874Z,6400
2016-04-17T12:57:01.860Z,6496
2016-04-17T12:58:01.848Z,6596
2016-04-17T12:59:03.960Z,6616
2016-04-17T13:00:01.807Z,6980
2016-04-17T13:01:01.778Z,7336
2016-04-17T13:02:01.750Z,8724
2016-04-17T13:03:01.737Z,9492
2016-04-17T13:04:01.708Z,9840
2016-04-17T13:05:01.696Z,10152
2016-04-17T13:06:01.651Z,10952
2016-04-17T13:07:01.637Z,11080
2016-04-17T13:08:01.609Z,11588
2016-04-17T13:09:01.581Z,12280
2016-04-17T13:10:01.584Z,12860
2016-04-17T13:11:01.554Z,12860
2016-04-17T13:12:01.620Z,12248
2016-04-17T13:13:01.498Z,11176
2016-04-17T13:14:01.485Z,9952
2016-04-17T13:15:01.456Z,8596
2016-04-17T13:16:01.443Z,7700
2016-04-17T13:17:01.415Z,7284
2016-04-17T13:18:01.245Z,7224
2016-04-17T13:19:01.373Z,7588
2016-04-17T13:20:01.345Z,7908
2016-04-17T13:21:01.331Z,7508
2016-04-17T13:22:01.319Z,7036
2016-04-17T13:23:01.275Z,7092
2016-04-17T13:24:01.246Z,7688
2016-04-17T13:25:01.233Z,8428
2016-04-17T13:26:01.204Z,9144
2016-04-17T13:27:01.316Z,9872
2016-04-17T13:28:01.163Z,10280
2016-04-17T13:29:01.150Z,10840
2016-04-17T13:30:01.121Z,10980
2016-04-17T13:31:01.093Z,11448
2016-04-17T13:32:01.096Z,11724
2016-04-17T13:33:01.099Z,11716
2016-04-17T13:34:01.054Z,11768
2016-04-17T13:35:01.010Z,11468
2016-04-17T13:36:01.013Z,10972
2016-04-17T13:37:00.968Z,10724
2016-04-17T13:38:00.971Z,10108
2016-04-17T13:39:00.912Z,9964